Time;durP1;ratioP1;P1;durP2;ratioP2;P2;SDS_P1;SDS_P2;PMS_P1;PMS_P2;Temp;Humidity;BMP_temperature;BMP_pressure;BME280_temperature;BME280_humidity;BME280_pressure;Samples;Min_cycle;Max_cycle;Signal;HPM_P1;HPM_P2
2021/12/24 00:01:15;;;;;;;0.40;0.30;;;11.50;92.60;;;;;;5090750;28;20525;-78
2021/12/24 00:03:41;;;;;;;0.40;0.30;;;11.50;92.70;;;;;;5089716;28;20438;-78
2021/12/24 00:06:07;;;;;;;1.10;0.80;;;11.40;92.90;;;;;;5090749;28;20370;-78
2021/12/24 00:08:34;;;;;;;0.40;0.20;;;11.40;93.00;;;;;;5090435;28;20390;-78
2021/12/24 00:11:02;;;;;;;0.40;0.20;;;11.50;93.00;;;;;;5055089;28;20495;-77
2021/12/24 00:13:39;;;;;;;0.40;0.20;;;11.40;93.10;;;;;;5090527;28;20374;-77
2021/12/24 00:37:22;;;;;;;0.40;0.20;;;11.20;95.10;;;;;;5110788;28;20418;-78
2021/12/24 00:39:56;;;;;;;0.40;0.40;;;11.10;95.60;;;;;;5128419;28;20794;-78
2021/12/24 00:42:22;;;;;;;0.40;0.30;;;11.20;95.70;;;;;;5131700;28;20389;-78
2021/12/24 00:44:48;;;;;;;0.90;0.90;;;11.20;95.90;;;;;;5130920;28;20728;-78
2021/12/24 00:47:14;;;;;;;0.40;0.30;;;11.20;96.10;;;;;;5111833;28;20734;-78
2021/12/24 00:49:40;;;;;;;0.40;0.30;;;11.20;95.90;;;;;;5112660;28;20490;-77
2021/12/24 00:57:19;;;;;;;0.40;0.30;;;11.20;96.30;;;;;;5130308;28;20374;-78
2021/12/24 00:59:45;;;;;;;0.40;0.20;;;11.10;96.50;;;;;;5115066;27;20394;-77
2021/12/24 01:02:11;;;;;;;0.40;0.30;;;11.00;96.90;;;;;;5133862;27;20386;-79
2021/12/24 01:04:36;;;;;;;0.40;0.20;;;11.00;97.00;;;;;;5116390;27;20383;-78
2021/12/24 01:07:02;;;;;;;0.40;0.23;;;10.90;97.30;;;;;;5134470;27;20382;-79
2021/12/24 01:09:28;;;;;;;0.40;0.20;;;11.00;97.40;;;;;;5133711;27;20386;-78
2021/12/24 01:11:54;;;;;;;0.40;0.28;;;11.10;97.20;;;;;;5116111;27;20379;-78
2021/12/24 01:14:22;;;;;;;0.40;0.30;;;11.00;97.30;;;;;;5133563;27;20885;-78
2021/12/24 01:19:33;;;;;;;0.70;0.50;;;10.90;97.80;;;;;;5131961;27;20413;-79
2021/12/24 01:25:05;;;;;;;0.40;0.20;;;10.80;98.20;;;;;;5077783;27;20431;-79
2021/12/24 01:37:48;;;;;;;0.40;0.20;;;10.90;98.20;;;;;;5134328;27;20407;-79
2021/12/24 01:38:23;;;;;;;0.80;0.70;;;10.90;98.20;;;;;;5133766;27;20416;-77
2021/12/24 01:43:24;;;;;;;0.40;0.20;;;10.90;98.60;;;;;;5134203;27;20387;-77
2021/12/24 01:45:54;;;;;;;0.40;0.20;;;11.00;98.60;;;;;;5114594;27;20374;-79
2021/12/24 01:48:21;;;;;;;0.40;0.20;;;10.90;98.50;;;;;;5115454;27;20821;-78
2021/12/24 01:50:48;;;;;;;0.40;0.20;;;10.90;98.70;;;;;;5132912;27;20705;-77
2021/12/24 01:53:20;;;;;;;0.40;0.40;;;11.00;98.80;;;;;;5133653;27;20371;-77
2021/12/24 01:55:48;;;;;;;0.60;0.50;;;11.00;98.80;;;;;;5132909;27;20378;-76
2021/12/24 01:58:19;;;;;;;0.40;0.30;;;10.90;98.90;;;;;;5133744;27;20383;-77
2021/12/24 02:00:49;;;;;;;0.40;0.20;;;10.90;98.80;;;;;;5133061;27;20398;-77
2021/12/24 02:03:15;;;;;;;0.40;0.30;;;11.00;98.90;;;;;;5115195;27;20981;-77
2021/12/24 02:05:42;;;;;;;0.40;0.20;;;10.90;99.10;;;;;;5133804;27;20374;-77
2021/12/24 02:08:10;;;;;;;0.40;0.30;;;10.90;99.20;;;;;;5132819;27;20470;-76
2021/12/24 02:10:35;;;;;;;0.40;0.30;;;10.90;99.40;;;;;;5132813;27;20391;-76
2021/12/24 02:13:01;;;;;;;0.40;0.30;;;11.00;99.20;;;;;;5132329;27;20367;-77
2021/12/24 02:28:42;;;;;;;0.40;0.20;;;11.00;99.60;;;;;;5132847;27;20451;-76
2021/12/24 02:31:21;;;;;;;0.40;0.30;;;11.10;99.60;;;;;;5114123;27;20386;-77
2021/12/24 02:33:48;;;;;;;0.40;0.30;;;11.10;99.40;;;;;;5121617;27;20388;-77
2021/12/24 02:36:14;;;;;;;0.40;0.27;;;11.10;99.40;;;;;;5111810;28;20478;-78
2021/12/24 02:38:41;;;;;;;0.40;0.20;;;11.00;99.50;;;;;;5094028;28;20417;-77
2021/12/24 02:41:08;;;;;;;0.40;0.20;;;10.90;99.60;;;;;;5112418;28;20400;-77
2021/12/24 02:43:35;;;;;;;0.40;0.20;;;11.00;99.60;;;;;;5092852;28;20865;-78
2021/12/24 02:46:09;;;;;;;0.40;0.20;;;11.10;99.70;;;;;;5111320;28;20388;-76
2021/12/24 02:53:58;;;;;;;0.40;0.20;;;11.00;99.40;;;;;;5111821;28;20392;-77
2021/12/24 02:56:49;;;;;;;0.40;0.20;;;11.00;99.80;;;;;;5093041;28;20391;-78
2021/12/24 02:59:17;;;;;;;0.40;0.20;;;10.90;99.90;;;;;;5093726;28;20384;-78
2021/12/24 03:01:46;;;;;;;0.40;0.30;;;11.00;99.80;;;;;;5092715;28;20428;-77
2021/12/24 03:04:12;;;;;;;1.30;0.80;;;10.90;99.70;;;;;;5112264;28;20376;-77
2021/12/24 03:06:41;;;;;;;0.40;0.20;;;11.00;99.50;;;;;;5110837;28;20519;-77
2021/12/24 03:09:10;;;;;;;0.40;0.20;;;11.00;99.50;;;;;;5111810;28;20377;-76
2021/12/24 03:11:36;;;;;;;0.50;0.50;;;11.00;99.60;;;;;;5111969;28;20384;-77
2021/12/24 03:14:07;;;;;;;0.40;0.20;;;11.00;99.60;;;;;;5092659;28;20372;-77
2021/12/24 03:16:34;;;;;;;0.40;0.20;;;10.90;99.90;;;;;;5093464;28;20392;-76
2021/12/24 03:19:00;;;;;;;0.40;0.20;;;10.90;99.70;;;;;;5110758;28;20937;-78
2021/12/24 03:21:34;;;;;;;0.40;0.20;;;10.90;99.70;;;;;;5111194;28;20403;-77
2021/12/24 03:26:31;;;;;;;0.40;0.20;;;10.70;99.90;;;;;;5111627;28;20388;-76
2021/12/24 03:28:56;;;;;;;0.40;0.20;;;10.90;99.60;;;;;;5081689;28;20500;-77
2021/12/24 03:31:22;;;;;;;0.40;0.20;;;10.90;99.70;;;;;;5090823;28;20586;-77
2021/12/24 03:33:53;;;;;;;0.40;0.20;;;10.90;99.90;;;;;;5079767;28;20745;-77
2021/12/24 03:36:20;;;;;;;0.40;0.20;;;10.80;99.90;;;;;;5052132;28;20387;-77
2021/12/24 03:38:46;;;;;;;0.40;0.20;;;10.80;99.90;;;;;;5070481;28;20390;-77
2021/12/24 03:41:12;;;;;;;0.40;0.20;;;10.70;99.90;;;;;;5069339;28;20416;-76
2021/12/24 03:43:37;;;;;;;0.50;0.50;;;10.70;99.90;;;;;;5052621;28;20395;-77
2021/12/24 03:46:08;;;;;;;0.40;0.30;;;10.80;99.90;;;;;;5071013;28;20395;-77
2021/12/24 03:48:48;;;;;;;0.60;0.60;;;10.90;99.90;;;;;;5051846;28;20457;-77
2021/12/24 03:56:25;;;;;;;0.40;0.20;;;10.90;99.90;;;;;;5069822;28;20468;-76
2021/12/24 03:58:51;;;;;;;0.40;0.20;;;10.80;99.90;;;;;;5069744;28;20407;-76
2021/12/24 04:01:16;;;;;;;0.40;0.20;;;10.90;99.90;;;;;;5052538;28;20471;-77
2021/12/24 04:03:42;;;;;;;0.40;0.20;;;10.80;99.90;;;;;;5069729;28;20903;-77
2021/12/24 04:06:08;;;;;;;0.50;0.40;;;10.80;99.90;;;;;;5051681;28;20387;-77
2021/12/24 04:08:34;;;;;;;0.40;0.30;;;10.80;99.90;;;;;;5051717;28;20870;-78
2021/12/24 04:11:00;;;;;;;0.40;0.20;;;10.80;99.90;;;;;;5069443;28;20390;-77
2021/12/24 04:13:26;;;;;;;0.40;0.20;;;10.80;99.90;;;;;;5069786;28;20471;-78
2021/12/24 04:15:51;;;;;;;0.40;0.22;;;10.70;99.90;;;;;;5069378;28;20414;-78
2021/12/24 04:19:18;;;;;;;0.40;0.20;;;10.70;99.90;;;;;;5069993;28;20449;-76
2021/12/24 04:26:34;;;;;;;0.40;0.40;;;10.70;99.90;;;;;;5069893;28;20395;-77
2021/12/24 04:29:00;;;;;;;0.40;0.20;;;10.70;99.90;;;;;;5080655;28;20459;-78
2021/12/24 04:34:04;;;;;;;0.40;0.20;;;10.70;99.90;;;;;;5089028;28;20387;-76
2021/12/24 04:39:26;;;;;;;0.40;0.20;;;10.70;99.90;;;;;;5114189;28;20412;-80
2021/12/24 05:03:32;;;;;;;0.40;0.20;;;10.60;99.90;;;;;;5114639;28;20442;-77
2021/12/24 05:11:34;;;;;;;0.40;0.30;;;10.60;99.90;;;;;;5111182;28;20388;-77
2021/12/24 05:14:00;;;;;;;0.40;0.30;;;10.50;99.90;;;;;;5113430;28;20421;-77
2021/12/24 05:16:39;;;;;;;0.40;0.20;;;10.50;99.90;;;;;;5114098;28;20369;-78
2021/12/24 05:21:33;;;;;;;0.40;0.20;;;10.50;99.90;;;;;;5113773;28;20423;-78
2021/12/24 05:24:06;;;;;;;0.40;0.20;;;10.50;99.90;;;;;;5094894;28;20432;-76
2021/12/24 05:26:33;;;;;;;0.40;0.20;;;10.50;99.90;;;;;;5095910;28;20400;-75
2021/12/24 05:28:59;;;;;;;0.40;0.20;;;10.50;99.90;;;;;;5095401;28;20400;-78
2021/12/24 05:31:25;;;;;;;0.40;0.30;;;10.50;99.90;;;;;;5113312;28;20483;-76
2021/12/24 05:33:51;;;;;;;0.40;0.30;;;10.50;99.90;;;;;;5101770;28;20531;-78
2021/12/24 05:36:17;;;;;;;0.60;0.60;;;10.50;99.90;;;;;;5092702;28;20397;-77
2021/12/24 05:38:43;;;;;;;0.40;0.38;;;10.50;99.90;;;;;;5113359;27;20833;-79
2021/12/24 05:41:10;;;;;;;0.40;0.20;;;10.40;99.90;;;;;;5114935;27;20398;-76
2021/12/24 05:43:36;;;;;;;0.40;0.30;;;10.40;99.90;;;;;;5131853;27;20375;-78
2021/12/24 05:46:11;;;;;;;0.40;0.20;;;10.30;99.90;;;;;;5115215;27;20390;-78
2021/12/24 05:48:37;;;;;;;0.57;0.57;;;10.30;99.90;;;;;;5115084;27;20932;-77
2021/12/24 05:51:04;;;;;;;0.40;0.30;;;10.40;99.90;;;;;;5134101;27;20393;-79
2021/12/24 05:53:33;;;;;;;0.40;0.20;;;10.40;99.90;;;;;;5114509;27;20383;-78
2021/12/24 05:55:59;;;;;;;0.40;0.20;;;10.30;99.90;;;;;;5134149;27;20387;-81
2021/12/24 05:58:25;;;;;;;0.40;0.20;;;10.30;99.90;;;;;;5115778;27;20378;-81
2021/12/24 06:00:52;;;;;;;0.40;0.20;;;10.20;99.90;;;;;;5114460;27;20430;-81
2021/12/24 06:03:18;;;;;;;1.52;1.42;;;10.20;99.90;;;;;;5115498;27;20397;-83
2021/12/24 06:05:45;;;;;;;0.70;0.60;;;10.10;99.90;;;;;;5114718;27;20383;-82
2021/12/24 06:08:12;;;;;;;0.40;0.30;;;10.00;99.90;;;;;;5134419;27;20379;-83
2021/12/24 06:10:37;;;;;;;0.40;0.20;;;10.10;99.90;;;;;;5115559;27;20403;-81
2021/12/24 06:13:04;;;;;;;0.40;0.20;;;10.20;99.90;;;;;;5133054;27;20538;-77
2021/12/24 06:15:40;;;;;;;0.40;0.20;;;10.20;99.90;;;;;;5133648;27;20790;-77
2021/12/24 06:18:28;;;;;;;0.40;0.20;;;10.10;99.90;;;;;;5132898;27;20403;-78
2021/12/24 06:20:56;;;;;;;0.40;0.20;;;10.10;99.90;;;;;;5100839;27;20418;-78
2021/12/24 06:23:24;;;;;;;0.40;0.20;;;10.10;99.90;;;;;;5115137;27;20807;-79
2021/12/24 06:25:58;;;;;;;0.70;0.70;;;10.10;99.90;;;;;;5133507;27;20375;-78
2021/12/24 06:28:25;;;;;;;0.40;0.20;;;10.10;99.90;;;;;;5133109;27;20809;-77
2021/12/24 06:30:52;;;;;;;0.40;0.30;;;10.10;99.90;;;;;;5133685;27;20473;-77
2021/12/24 06:33:18;;;;;;;0.40;0.30;;;10.10;99.90;;;;;;5132350;27;20428;-76
2021/12/24 06:35:44;;;;;;;0.50;0.40;;;10.00;99.90;;;;;;5133031;27;20375;-76
2021/12/24 06:38:10;;;;;;;0.40;0.20;;;10.00;99.90;;;;;;5114824;27;20390;-75
2021/12/24 06:40:36;;;;;;;0.40;0.40;;;10.00;99.90;;;;;;5132140;27;20398;-76
2021/12/24 06:43:03;;;;;;;0.40;0.20;;;9.90;99.90;;;;;;5132116;27;20766;-76
2021/12/24 06:45:34;;;;;;;0.40;0.20;;;9.90;99.90;;;;;;5131925;27;20495;-76
2021/12/24 06:48:02;;;;;;;0.40;0.20;;;9.80;99.90;;;;;;5114550;27;20469;-76
2021/12/24 06:50:29;;;;;;;0.40;0.30;;;9.80;99.90;;;;;;5113617;27;20487;-78
2021/12/24 06:52:55;;;;;;;0.40;0.20;;;9.70;99.90;;;;;;5114300;27;20478;-76
2021/12/24 06:55:21;;;;;;;0.40;0.20;;;9.80;99.90;;;;;;5133302;27;20791;-77
2021/12/24 06:57:48;;;;;;;0.40;0.20;;;9.80;99.90;;;;;;5113282;27;20422;-77
2021/12/24 07:00:17;;;;;;;0.40;0.20;;;9.80;99.90;;;;;;5132271;27;20402;-76
2021/12/24 07:02:43;;;;;;;0.40;0.20;;;9.80;99.90;;;;;;5113565;27;20382;-76
2021/12/24 07:05:09;;;;;;;0.40;0.20;;;9.70;99.90;;;;;;5114226;27;20726;-77
2021/12/24 07:07:35;;;;;;;0.40;0.40;;;9.70;99.90;;;;;;5132670;27;20417;-76
2021/12/24 07:10:00;;;;;;;0.40;0.20;;;9.60;99.90;;;;;;5131657;27;20456;-78
2021/12/24 07:12:26;;;;;;;0.40;0.25;;;9.70;99.90;;;;;;5132313;27;20383;-77
2021/12/24 07:14:52;;;;;;;0.40;0.20;;;9.70;99.90;;;;;;5131893;27;20810;-78
2021/12/24 07:17:18;;;;;;;0.40;0.20;;;9.80;99.90;;;;;;5113976;27;20382;-80
2021/12/24 07:19:44;;;;;;;0.40;0.20;;;9.60;99.90;;;;;;5113898;27;20523;-80
2021/12/24 07:22:09;;;;;;;0.40;0.20;;;9.70;99.90;;;;;;5113316;27;20781;-80
2021/12/24 07:24:36;;;;;;;0.40;0.20;;;9.60;99.90;;;;;;5132690;27;20473;-79
2021/12/24 07:27:03;;;;;;;0.40;0.20;;;9.60;99.90;;;;;;5132045;27;20479;-76
2021/12/24 07:29:30;;;;;;;0.40;0.40;;;9.60;99.90;;;;;;5131876;27;20402;-75
2021/12/24 07:31:56;;;;;;;1.20;0.70;;;9.50;99.90;;;;;;5113841;27;20388;-76
2021/12/24 07:34:22;;;;;;;0.40;0.20;;;9.40;99.90;;;;;;5114937;27;20430;-74
2021/12/24 07:36:48;;;;;;;0.40;0.30;;;9.40;99.90;;;;;;5111329;28;20360;-76
2021/12/24 07:39:14;;;;;;;0.40;0.20;;;9.30;99.90;;;;;;5110983;28;20380;-78
2021/12/24 07:41:40;;;;;;;0.40;0.20;;;9.20;99.90;;;;;;5110947;28;20460;-78
2021/12/24 07:44:06;;;;;;;0.40;0.20;;;9.20;99.90;;;;;;5120464;27;20378;-77
2021/12/24 07:46:39;;;;;;;0.40;0.20;;;9.10;99.90;;;;;;5129916;27;20386;-78
2021/12/24 07:49:18;;;;;;;0.40;0.30;;;9.00;99.90;;;;;;5111786;27;20374;-77
2021/12/24 07:54:47;;;;;;;0.40;0.20;;;8.90;99.90;;;;;;5096021;27;20398;-78
2021/12/24 07:57:14;;;;;;;0.40;0.20;;;8.90;99.90;;;;;;5131870;27;20371;-75
2021/12/24 07:59:42;;;;;;;0.40;0.20;;;8.80;99.90;;;;;;5130669;27;20764;-78
2021/12/24 08:02:17;;;;;;;0.40;0.20;;;8.80;99.90;;;;;;5113376;27;20484;-77
2021/12/24 08:04:45;;;;;;;0.40;0.20;;;8.80;99.90;;;;;;5131038;27;20698;-80
2021/12/24 08:07:12;;;;;;;0.40;0.20;;;8.80;99.90;;;;;;5131552;27;20370;-79
2021/12/24 08:09:38;;;;;;;1.50;0.68;;;8.70;99.90;;;;;;5131435;27;20736;-80
2021/12/24 08:12:09;;;;;;;0.40;0.30;;;8.60;99.90;;;;;;5130941;28;21080;-80
2021/12/24 08:14:35;;;;;;;0.40;0.20;;;8.70;99.90;;;;;;5113207;28;20409;-80
2021/12/24 08:17:02;;;;;;;0.40;0.20;;;8.80;99.90;;;;;;5130580;28;20371;-79
2021/12/24 08:19:29;;;;;;;0.40;0.30;;;8.80;99.90;;;;;;5131319;28;20383;-80
2021/12/24 08:21:55;;;;;;;0.40;0.30;;;8.70;99.90;;;;;;5112381;28;20477;-85
2021/12/24 08:24:21;;;;;;;0.40;0.30;;;8.70;99.90;;;;;;5131706;28;20391;-80
2021/12/24 08:26:47;;;;;;;0.40;0.30;;;8.80;99.90;;;;;;5131116;28;20741;-80
2021/12/24 08:29:12;;;;;;;0.40;0.30;;;8.70;99.90;;;;;;5130220;28;20390;-79
2021/12/24 08:31:38;;;;;;;0.40;0.30;;;8.70;99.90;;;;;;5113129;28;20387;-78
2021/12/24 08:34:05;;;;;;;0.40;0.40;;;8.60;99.90;;;;;;5131372;28;20439;-84
2021/12/24 08:36:32;;;;;;;0.40;0.20;;;8.70;99.90;;;;;;5131655;28;20465;-78
2021/12/24 08:38:58;;;;;;;0.50;0.50;;;8.70;99.90;;;;;;5113313;28;20382;-78
2021/12/24 08:41:25;;;;;;;0.40;0.20;;;8.70;99.90;;;;;;5130386;28;20386;-78
2021/12/24 08:43:51;;;;;;;0.40;0.20;;;8.60;99.90;;;;;;5130865;28;20393;-81
2021/12/24 08:46:17;;;;;;;0.40;0.30;;;8.50;99.90;;;;;;5110182;28;20474;-81
2021/12/24 08:48:43;;;;;;;0.40;0.20;;;8.60;99.90;;;;;;5131270;28;20375;-75
2021/12/24 08:51:09;;;;;;;0.40;0.40;;;8.50;99.90;;;;;;5131406;28;20400;-73
2021/12/24 08:53:35;;;;;;;0.40;0.40;;;8.50;99.90;;;;;;5130271;28;20410;-73
2021/12/24 08:56:02;;;;;;;0.40;0.20;;;8.60;99.90;;;;;;5130791;28;20379;-74
2021/12/24 08:58:27;;;;;;;0.40;0.20;;;8.60;99.90;;;;;;5130894;28;20378;-76
2021/12/24 09:00:53;;;;;;;0.40;0.20;;;8.70;99.90;;;;;;5130607;28;20939;-75
2021/12/24 09:03:19;;;;;;;0.40;0.20;;;8.70;99.90;;;;;;5131130;28;20861;-76
2021/12/24 09:05:46;;;;;;;0.40;0.40;;;8.80;99.90;;;;;;5130476;28;20466;-76
2021/12/24 09:08:12;;;;;;;0.40;0.30;;;8.70;99.90;;;;;;5131063;28;20375;-75
2021/12/24 09:10:38;;;;;;;0.40;0.20;;;8.80;99.90;;;;;;5131105;28;20386;-78
2021/12/24 09:13:04;;;;;;;0.40;0.30;;;8.80;99.90;;;;;;5130746;28;20408;-74
2021/12/24 09:15:30;;;;;;;0.40;0.30;;;8.70;99.90;;;;;;5112630;28;20463;-75
2021/12/24 09:18:01;;;;;;;0.40;0.20;;;8.70;99.90;;;;;;5122047;28;20402;-76
2021/12/24 09:20:34;;;;;;;0.40;0.20;;;8.70;99.90;;;;;;5091397;28;20445;-77
2021/12/24 09:23:02;;;;;;;0.60;0.60;;;8.70;99.90;;;;;;5074282;28;20428;-77
2021/12/24 09:25:29;;;;;;;0.40;0.20;;;8.70;99.90;;;;;;5075100;28;20397;-78
2021/12/24 09:27:59;;;;;;;0.40;0.30;;;8.70;99.90;;;;;;5092704;28;20390;-82
2021/12/24 09:30:25;;;;;;;0.40;0.30;;;8.80;99.90;;;;;;5097034;28;20388;-79
2021/12/24 09:32:52;;;;;;;0.40;0.30;;;8.70;99.90;;;;;;5093875;28;20378;-81
2021/12/24 09:35:20;;;;;;;0.40;0.20;;;8.60;99.90;;;;;;5093247;28;20378;-79
2021/12/24 09:37:48;;;;;;;0.40;0.30;;;8.70;99.90;;;;;;5102047;28;20396;-79
2021/12/24 09:40:17;;;;;;;0.40;0.20;;;8.60;99.90;;;;;;5112933;28;20473;-80
2021/12/24 09:42:43;;;;;;;0.40;0.30;;;8.60;99.90;;;;;;5113146;28;20484;-80
2021/12/24 09:45:11;;;;;;;0.40;0.20;;;8.50;99.90;;;;;;5112680;28;20377;-85
2021/12/24 09:47:37;;;;;;;0.40;0.20;;;8.60;99.90;;;;;;5095127;28;20392;-81
2021/12/24 09:50:05;;;;;;;0.40;0.30;;;8.50;99.90;;;;;;5113505;28;20380;-80
2021/12/24 09:52:31;;;;;;;0.40;0.20;;;8.50;99.90;;;;;;5112647;28;20463;-79
2021/12/24 09:55:05;;;;;;;0.40;0.20;;;8.70;99.90;;;;;;5114779;28;20388;-78
2021/12/24 09:57:31;;;;;;;0.40;0.20;;;8.60;99.90;;;;;;5114790;28;20373;-80
2021/12/24 09:59:56;;;;;;;2.10;0.60;;;8.70;99.90;;;;;;5113845;28;20408;-79
2021/12/24 10:02:28;;;;;;;0.40;0.20;;;8.70;99.90;;;;;;5114285;28;20847;-79
2021/12/24 10:04:54;;;;;;;0.40;0.30;;;8.90;99.90;;;;;;5095671;28;20379;-79
2021/12/24 10:07:24;;;;;;;0.40;0.30;;;8.90;99.90;;;;;;5113311;28;20734;-86
2021/12/24 10:09:50;;;;;;;0.40;0.20;;;9.00;99.90;;;;;;5095218;28;20380;-85
2021/12/24 10:12:24;;;;;;;0.40;0.40;;;8.90;99.90;;;;;;5113458;28;20391;-84
2021/12/24 10:14:59;;;;;;;0.40;0.20;;;8.90;99.90;;;;;;5094506;28;20387;-89
2021/12/24 10:17:38;;;;;;;0.40;0.20;;;8.90;99.90;;;;;;5113418;28;20393;-89
2021/12/24 10:20:29;;;;;;;0.40;0.30;;;8.90;99.90;;;;;;5112899;28;20487;-85
2021/12/24 10:22:55;;;;;;;0.40;0.20;;;8.90;99.90;;;;;;5108231;28;20483;-87
2021/12/24 10:25:27;;;;;;;0.40;0.30;;;8.90;99.90;;;;;;5113047;28;20488;-88
2021/12/24 10:27:53;;;;;;;0.40;0.30;;;8.90;99.90;;;;;;5112103;28;20394;-87
2021/12/24 10:30:29;;;;;;;0.40;0.20;;;8.90;99.90;;;;;;5112963;28;20412;-88
2021/12/24 10:32:57;;;;;;;0.40;0.30;;;8.90;99.90;;;;;;5106466;28;20406;-82
2021/12/24 10:35:28;;;;;;;0.40;0.27;;;8.90;99.90;;;;;;5101996;28;20742;-85
2021/12/24 10:38:14;;;;;;;0.80;0.80;;;8.90;99.90;;;;;;5112487;28;20853;-86
2021/12/24 10:40:54;;;;;;;0.40;0.30;;;8.90;99.90;;;;;;5089193;28;20800;-87
2021/12/24 10:43:33;;;;;;;0.40;0.20;;;9.10;99.90;;;;;;5111168;28;20909;-87
2021/12/24 10:46:28;;;;;;;0.40;0.20;;;9.00;99.90;;;;;;5111395;28;20385;-81
2021/12/24 10:49:02;;;;;;;0.40;0.20;;;9.00;99.90;;;;;;5086408;28;20392;-80
2021/12/24 10:54:12;;;;;;;0.40;0.30;;;9.10;99.90;;;;;;5110406;28;20398;-86
2021/12/24 10:56:38;;;;;;;0.40;0.20;;;9.10;99.90;;;;;;5112988;28;20384;-79
2021/12/24 10:59:05;;;;;;;2.30;0.70;;;9.30;99.90;;;;;;5095932;28;20562;-78
2021/12/24 11:01:31;;;;;;;0.40;0.20;;;9.30;99.90;;;;;;5098518;28;20408;-78
2021/12/24 11:03:56;;;;;;;0.40;0.20;;;9.30;99.90;;;;;;5081772;28;20394;-79
2021/12/24 11:06:30;;;;;;;0.40;0.30;;;9.30;99.90;;;;;;5102634;28;20862;-85
2021/12/24 11:08:57;;;;;;;0.40;0.20;;;9.30;99.90;;;;;;5111531;28;20888;-78
2021/12/24 11:11:22;;;;;;;0.40;0.20;;;9.30;99.90;;;;;;5112615;28;20389;-78
2021/12/24 11:13:49;;;;;;;0.40;0.20;;;9.40;99.90;;;;;;5112312;28;20383;-78
2021/12/24 11:16:25;;;;;;;0.40;0.20;;;9.30;99.90;;;;;;5112735;28;20413;-78
2021/12/24 11:19:02;;;;;;;0.40;0.30;;;9.40;99.90;;;;;;5111984;28;20385;-78
2021/12/24 11:21:30;;;;;;;0.50;0.40;;;9.40;99.90;;;;;;5112802;28;20403;-77
2021/12/24 11:23:56;;;;;;;0.40;0.20;;;9.50;99.90;;;;;;5112222;28;20521;-78
2021/12/24 11:26:28;;;;;;;0.50;0.40;;;9.50;99.90;;;;;;5112433;28;20468;-78
2021/12/24 11:28:55;;;;;;;0.40;0.20;;;9.50;99.90;;;;;;5110936;28;20404;-77
2021/12/24 11:31:24;;;;;;;0.40;0.20;;;9.50;99.90;;;;;;5093412;28;20385;-77
2021/12/24 11:33:52;;;;;;;0.40;0.20;;;9.60;99.90;;;;;;5111161;28;20377;-77
2021/12/24 11:36:20;;;;;;;0.40;0.20;;;9.60;99.90;;;;;;5112085;28;20372;-78
2021/12/24 11:38:52;;;;;;;0.40;0.20;;;9.60;99.90;;;;;;5111940;28;20405;-77
2021/12/24 11:41:20;;;;;;;0.40;0.30;;;9.60;99.90;;;;;;5111512;28;20406;-77
2021/12/24 11:43:49;;;;;;;0.40;0.20;;;9.60;99.90;;;;;;5111086;28;20439;-78
2021/12/24 11:46:17;;;;;;;0.40;0.20;;;9.60;99.90;;;;;;5092502;28;20380;-77
2021/12/24 11:48:44;;;;;;;0.40;0.30;;;9.50;99.90;;;;;;5111504;28;20380;-77
2021/12/24 11:51:29;;;;;;;0.40;0.30;;;9.60;99.90;;;;;;5110815;28;20376;-77
2021/12/24 11:53:59;;;;;;;0.40;0.30;;;9.70;99.90;;;;;;5111712;28;20392;-77
2021/12/24 11:56:24;;;;;;;0.40;0.20;;;9.70;99.90;;;;;;5093218;28;20807;-77
2021/12/24 11:58:54;;;;;;;0.40;0.30;;;9.70;99.90;;;;;;5093439;28;20391;-77
2021/12/24 12:01:23;;;;;;;0.40;0.30;;;9.60;99.90;;;;;;5110875;28;20486;-77
2021/12/24 12:03:52;;;;;;;0.40;0.20;;;9.60;99.90;;;;;;5111311;28;20380;-77
2021/12/24 12:06:20;;;;;;;0.40;0.30;;;9.70;99.90;;;;;;5089478;28;20415;-77
2021/12/24 12:08:48;;;;;;;0.40;0.30;;;9.70;99.90;;;;;;5096301;28;20474;-77
2021/12/24 12:11:14;;;;;;;0.40;0.30;;;9.70;99.90;;;;;;5099702;28;20394;-79
2021/12/24 12:14:03;;;;;;;0.40;0.20;;;9.60;99.90;;;;;;5081025;28;20419;-77
2021/12/24 12:16:49;;;;;;;0.40;0.20;;;9.60;99.90;;;;;;5104294;28;20839;-76
2021/12/24 12:19:26;;;;;;;0.40;0.20;;;9.70;99.90;;;;;;5102946;28;20774;-84
2021/12/24 12:22:18;;;;;;;1.80;0.90;;;9.70;99.90;;;;;;5096024;28;20463;-81
2021/12/24 12:27:18;;;;;;;0.40;0.30;;;9.70;99.90;;;;;;5105122;28;20400;-76
2021/12/24 12:29:45;;;;;;;1.30;1.20;;;9.60;99.90;;;;;;5063406;28;20506;-76
2021/12/24 12:32:16;;;;;;;0.75;0.75;;;9.70;99.90;;;;;;5082586;28;20439;-76
2021/12/24 12:34:45;;;;;;;0.50;0.50;;;9.70;99.90;;;;;;5072135;28;20710;-76
2021/12/24 12:37:28;;;;;;;0.40;0.20;;;9.70;99.90;;;;;;5084572;28;20461;-76
2021/12/24 12:40:25;;;;;;;0.40;0.20;;;9.60;99.90;;;;;;5064409;28;20504;-76
2021/12/24 12:42:56;;;;;;;0.40;0.30;;;9.60;99.90;;;;;;5061824;28;20403;-74
2021/12/24 12:45:47;;;;;;;0.40;0.20;;;9.60;99.90;;;;;;5066046;28;20835;-74
2021/12/24 12:48:25;;;;;;;0.40;0.30;;;9.70;99.90;;;;;;5071410;28;20783;-76
2021/12/24 12:51:00;;;;;;;0.40;0.40;;;9.70;99.90;;;;;;5107523;28;20372;-76
2021/12/24 12:53:35;;;;;;;0.40;0.30;;;9.60;99.90;;;;;;5079199;28;20392;-76
2021/12/24 12:56:17;;;;;;;0.60;0.50;;;9.60;99.90;;;;;;5100864;28;20470;-76
2021/12/24 12:58:46;;;;;;;0.75;0.65;;;9.60;99.90;;;;;;5110818;28;20391;-75
2021/12/24 13:01:21;;;;;;;0.80;0.70;;;9.60;99.90;;;;;;5098115;28;20419;-75
2021/12/24 13:03:56;;;;;;;0.40;0.30;;;9.60;99.90;;;;;;5086110;28;20721;-74
2021/12/24 13:06:23;;;;;;;0.40;0.30;;;9.50;99.90;;;;;;5108885;28;20386;-74
2021/12/24 13:08:50;;;;;;;0.50;0.40;;;9.70;99.90;;;;;;5090815;28;20401;-76
2021/12/24 13:11:21;;;;;;;0.40;0.30;;;9.70;99.90;;;;;;5085276;28;20406;-75
2021/12/24 13:13:55;;;;;;;0.40;0.30;;;9.50;99.90;;;;;;5096755;28;20891;-76
2021/12/24 13:16:52;;;;;;;0.40;0.40;;;9.60;99.90;;;;;;5064450;28;21017;-75
2021/12/24 13:19:54;;;;;;;0.40;0.30;;;9.70;99.90;;;;;;5061218;28;20388;-76
2021/12/24 13:25:14;;;;;;;0.40;0.20;;;9.80;99.90;;;;;;5094003;28;20396;-75
2021/12/24 13:27:44;;;;;;;0.40;0.20;;;9.70;99.90;;;;;;5098739;28;20415;-76
2021/12/24 13:30:13;;;;;;;0.40;0.20;;;9.70;99.90;;;;;;5105188;28;20781;-77
2021/12/24 13:32:52;;;;;;;0.40;0.20;;;9.70;99.90;;;;;;5111178;27;20429;-75
2021/12/24 13:35:45;;;;;;;0.40;0.30;;;9.70;99.90;;;;;;5105835;27;20373;-79
2021/12/24 13:38:24;;;;;;;0.40;0.20;;;9.50;99.90;;;;;;5086171;28;20390;-76
2021/12/24 13:40:50;;;;;;;0.40;0.20;;;9.50;99.90;;;;;;5109117;27;20400;-76
2021/12/24 13:43:18;;;;;;;0.40;0.20;;;9.40;99.90;;;;;;5113148;27;20381;-77
2021/12/24 13:45:48;;;;;;;0.40;0.20;;;9.40;99.90;;;;;;5110927;27;20388;-76
2021/12/24 13:48:26;;;;;;;0.40;0.20;;;9.60;99.90;;;;;;5109534;28;20403;-76
2021/12/24 13:56:17;;;;;;;0.50;0.50;;;9.50;99.90;;;;;;5110889;27;20413;-78
2021/12/24 13:59:11;;;;;;;0.40;0.30;;;9.40;99.90;;;;;;5111953;27;20373;-76
2021/12/24 14:01:39;;;;;;;0.40;0.30;;;9.30;99.90;;;;;;5108014;27;20425;-78
2021/12/24 14:04:06;;;;;;;0.40;0.20;;;9.30;99.90;;;;;;5112058;27;20404;-77
2021/12/24 14:06:37;;;;;;;0.40;0.30;;;9.30;99.90;;;;;;5107750;27;20402;-77
2021/12/24 14:09:25;;;;;;;0.40;0.30;;;9.30;99.90;;;;;;5131697;27;20379;-77
2021/12/24 14:11:52;;;;;;;0.60;0.50;;;9.40;99.90;;;;;;5104843;27;20393;-78
2021/12/24 14:14:24;;;;;;;0.40;0.30;;;9.30;99.90;;;;;;5133566;27;20375;-77
2021/12/24 14:19:31;;;;;;;0.47;0.47;;;9.50;99.90;;;;;;5133391;27;20470;-76
2021/12/24 14:22:11;;;;;;;0.40;0.20;;;9.50;99.90;;;;;;5114180;27;20395;-76
2021/12/24 14:24:52;;;;;;;0.40;0.20;;;9.50;99.90;;;;;;5133520;27;20868;-77
2021/12/24 14:27:20;;;;;;;0.40;0.30;;;9.60;99.90;;;;;;5127775;27;20921;-77
2021/12/24 14:29:53;;;;;;;0.40;0.30;;;9.70;99.90;;;;;;5091936;27;20496;-77
2021/12/24 14:32:47;;;;;;;0.40;0.20;;;9.80;99.90;;;;;;5115258;27;20438;-75
2021/12/24 14:35:21;;;;;;;0.40;0.22;;;9.80;99.90;;;;;;5097231;27;20378;-76
2021/12/24 14:38:00;;;;;;;0.40;0.20;;;9.90;99.90;;;;;;5128185;27;20374;-76
2021/12/24 14:40:28;;;;;;;0.40;0.20;;;9.90;99.90;;;;;;5132936;27;20556;-76
2021/12/24 14:42:55;;;;;;;0.40;0.20;;;9.80;99.90;;;;;;5133005;27;20377;-76
2021/12/24 14:45:41;;;;;;;0.40;0.20;;;9.80;99.90;;;;;;5132300;27;20428;-77
2021/12/24 14:48:08;;;;;;;0.60;0.50;;;9.80;99.90;;;;;;5080971;27;20462;-81
2021/12/24 14:50:36;;;;;;;0.40;0.30;;;9.80;99.90;;;;;;5114567;27;20405;-74
2021/12/24 14:53:22;;;;;;;0.50;0.50;;;9.80;99.90;;;;;;5108115;27;20880;-77
2021/12/24 14:56:02;;;;;;;1.10;1.00;;;9.70;99.90;;;;;;5114360;27;20406;-74
2021/12/24 14:58:35;;;;;;;0.40;0.20;;;9.70;99.90;;;;;;5113409;27;20482;-74
2021/12/24 15:01:03;;;;;;;0.40;0.20;;;9.70;99.90;;;;;;5132466;27;20403;-73
2021/12/24 15:03:37;;;;;;;0.40;0.30;;;9.70;99.90;;;;;;5095247;28;20892;-74
2021/12/24 15:06:15;;;;;;;0.40;0.20;;;9.80;99.90;;;;;;5126304;27;20403;-74
2021/12/24 15:08:41;;;;;;;0.40;0.20;;;9.80;99.90;;;;;;5113893;27;20439;-75
2021/12/24 15:11:16;;;;;;;0.40;0.20;;;9.80;99.90;;;;;;5114190;27;20394;-74
2021/12/24 15:13:57;;;;;;;0.50;0.50;;;9.80;99.90;;;;;;5113139;27;20474;-74
2021/12/24 15:16:25;;;;;;;0.40;0.20;;;9.70;99.90;;;;;;5114018;27;20466;-74